createdAt,value
2022-11-30T00:01:22.617Z,89.18
2022-11-30T00:03:52.885Z,89.35
2022-11-30T00:06:25.736Z,89.48
2022-11-30T00:08:57.209Z,89.40
2022-11-30T00:11:27.197Z,89.74
2022-11-30T00:13:54.248Z,89.90
2022-11-30T00:16:21.796Z,90.25
2022-11-30T00:18:48.934Z,90.79
2022-11-30T00:21:16.681Z,91.13
2022-11-30T00:23:45.621Z,91.40
2022-11-30T00:26:16.107Z,91.43
2022-11-30T00:28:45.307Z,91.48
2022-11-30T00:31:14.756Z,91.43
2022-11-30T00:33:42.333Z,91.30
2022-11-30T00:36:15.244Z,91.65
2022-11-30T00:38:42.821Z,91.83
2022-11-30T00:41:10.231Z,91.91
2022-11-30T00:43:37.235Z,92.44
2022-11-30T00:46:04.775Z,92.58
2022-11-30T00:48:31.843Z,92.68
2022-11-30T00:50:58.732Z,93.12
2022-11-30T00:53:25.876Z,92.93
2022-11-30T00:55:52.673Z,93.18
2022-11-30T00:58:20.076Z,92.90
2022-11-30T01:00:47.232Z,93.08
2022-11-30T01:03:14.682Z,93.11
2022-11-30T01:05:43.464Z,92.94
2022-11-30T01:08:11.845Z,92.90
2022-11-30T01:10:41.210Z,92.87
2022-11-30T01:13:08.799Z,92.69
2022-11-30T01:15:38.563Z,92.52
2022-11-30T01:18:06.282Z,92.73
2022-11-30T01:20:33.536Z,92.69
2022-11-30T01:23:00.784Z,92.85
2022-11-30T01:25:27.726Z,92.93
2022-11-30T01:27:54.621Z,93.20
2022-11-30T01:30:21.795Z,93.56
2022-11-30T01:32:48.591Z,93.58
2022-11-30T01:35:15.609Z,93.67
2022-11-30T01:37:42.617Z,93.79
2022-11-30T01:40:11.367Z,94.08
2022-11-30T01:42:38.316Z,94.16
2022-11-30T01:45:07.307Z,94.40
2022-11-30T01:47:42.209Z,94.73
2022-11-30T01:50:17.739Z,95.12
2022-11-30T01:52:53.902Z,95.18
2022-11-30T01:55:34.940Z,95.08
2022-11-30T01:58:15.963Z,94.91
2022-11-30T02:00:47.253Z,95.06
2022-11-30T02:03:36.294Z,95.39
2022-11-30T02:06:03.564Z,95.33
2022-11-30T02:08:31.723Z,94.99
2022-11-30T02:11:02.953Z,94.88
2022-11-30T02:13:45.237Z,95.07
2022-11-30T02:16:34.263Z,95.33
2022-11-30T02:19:13.662Z,95.11
2022-11-30T02:22:19.744Z,95.33
2022-11-30T02:24:59.006Z,95.41
2022-11-30T02:27:38.097Z,95.34
2022-11-30T02:30:16.505Z,95.31
2022-11-30T02:32:51.901Z,95.21
2022-11-30T02:35:22.109Z,95.51
2022-11-30T02:37:52.270Z,95.38
2022-11-30T02:40:20.903Z,95.66
2022-11-30T02:42:50.472Z,95.56
2022-11-30T02:45:22.105Z,95.33
2022-11-30T02:48:13.971Z,95.50
2022-11-30T02:51:07.201Z,95.30
2022-11-30T02:53:34.524Z,95.33
2022-11-30T02:56:01.407Z,95.35
2022-11-30T02:58:28.449Z,95.04
2022-11-30T03:00:55.312Z,95.39
2022-11-30T03:03:22.953Z,95.32
2022-11-30T03:05:49.917Z,95.36
2022-11-30T03:08:16.811Z,95.11
2022-11-30T03:10:43.678Z,95.37
2022-11-30T03:13:10.878Z,95.48
2022-11-30T03:15:37.687Z,95.50
2022-11-30T03:18:06.277Z,95.53
2022-11-30T03:20:33.244Z,95.56
2022-11-30T03:23:03.231Z,96.02
2022-11-30T03:25:30.131Z,96.20
2022-11-30T03:27:56.975Z,96.15
2022-11-30T03:30:23.812Z,96.41
2022-11-30T03:32:51.737Z,96.58
2022-11-30T03:35:19.322Z,96.82
2022-11-30T03:37:47.583Z,96.79
2022-11-30T03:40:14.539Z,96.77
2022-11-30T03:42:41.784Z,96.99
2022-11-30T03:45:08.923Z,96.99
2022-11-30T03:47:35.830Z,97.02
2022-11-30T03:50:03.147Z,97.20
2022-11-30T03:52:30.172Z,97.01
2022-11-30T03:54:57.066Z,96.98
2022-11-30T03:57:24.138Z,97.01
2022-11-30T03:59:51.097Z,96.40
2022-11-30T04:02:17.976Z,96.50
2022-11-30T04:04:45.324Z,96.32
2022-11-30T04:07:12.632Z,96.18
2022-11-30T04:09:39.474Z,96.23
2022-11-30T04:12:06.722Z,96.43
2022-11-30T04:14:33.653Z,96.41
2022-11-30T04:17:00.514Z,96.26
2022-11-30T04:19:27.401Z,96.25
2022-11-30T04:21:54.555Z,96.50
2022-11-30T04:24:21.621Z,96.52
2022-11-30T04:26:48.484Z,96.51
2022-11-30T04:29:15.377Z,96.18
2022-11-30T04:31:42.402Z,96.23
2022-11-30T04:34:09.975Z,95.93
2022-11-30T04:36:36.891Z,96.05
2022-11-30T04:39:04.023Z,96.28
2022-11-30T04:41:30.926Z,96.00
2022-11-30T04:43:57.742Z,96.06
2022-11-30T04:46:24.858Z,96.19
2022-11-30T04:48:51.804Z,96.27
2022-11-30T04:51:18.812Z,96.00
2022-11-30T04:53:45.907Z,95.91
2022-11-30T04:56:12.954Z,96.14
2022-11-30T04:58:39.952Z,95.86
2022-11-30T05:01:08.390Z,96.07
2022-11-30T05:03:35.799Z,95.96
2022-11-30T05:06:03.619Z,96.10
2022-11-30T05:08:30.883Z,96.31
2022-11-30T05:10:58.177Z,96.60
2022-11-30T05:13:26.246Z,96.60
2022-11-30T05:15:55.992Z,96.62
2022-11-30T05:18:23.493Z,96.57
2022-11-30T05:20:51.997Z,96.84
2022-11-30T05:23:20.097Z,96.90
2022-11-30T05:25:47.172Z,97.08
2022-11-30T05:28:14.168Z,97.06
2022-11-30T05:30:42.475Z,97.11
2022-11-30T05:33:09.881Z,97.06
2022-11-30T05:35:37.030Z,97.06
2022-11-30T05:38:04.491Z,96.97
2022-11-30T05:40:33.689Z,96.83
2022-11-30T05:43:02.675Z,96.61
2022-11-30T05:45:30.459Z,96.63
2022-11-30T05:47:57.663Z,96.44
2022-11-30T05:50:24.706Z,96.48
2022-11-30T05:52:56.682Z,96.31
2022-11-30T05:55:24.672Z,96.15
2022-11-30T05:57:51.852Z,95.73
2022-11-30T06:00:19.541Z,95.64
2022-11-30T06:02:47.481Z,95.41
2022-11-30T06:05:14.451Z,95.12
2022-11-30T06:07:41.711Z,94.87
2022-11-30T06:10:09.315Z,94.83
2022-11-30T06:12:36.178Z,94.68
2022-11-30T06:15:03.755Z,94.37
2022-11-30T06:17:31.068Z,94.49
2022-11-30T06:19:58.081Z,94.94
2022-11-30T06:22:26.027Z,94.14
2022-11-30T06:24:53.401Z,93.66
2022-11-30T06:27:20.416Z,93.22
2022-11-30T06:29:47.447Z,93.03
2022-11-30T06:32:14.529Z,93.13
2022-11-30T06:34:41.533Z,93.20
2022-11-30T06:37:08.532Z,93.18
2022-11-30T06:40:04.848Z,93.41
2022-11-30T06:42:22.525Z,93.15
2022-11-30T06:44:49.840Z,93.47
2022-11-30T06:47:16.792Z,93.24
2022-11-30T06:49:44.048Z,93.19
2022-11-30T06:52:10.868Z,93.00
2022-11-30T06:54:37.722Z,92.82
2022-11-30T06:57:04.760Z,93.06
2022-11-30T06:59:31.629Z,92.72
2022-11-30T07:02:01.681Z,92.73
2022-11-30T07:04:33.511Z,92.53
2022-11-30T07:07:00.488Z,91.99
2022-11-30T07:09:27.427Z,91.37
2022-11-30T07:11:54.594Z,91.47
2022-11-30T07:14:21.758Z,91.44
2022-11-30T07:16:48.791Z,91.59
2022-11-30T07:19:16.144Z,91.50
2022-11-30T07:21:43.103Z,90.85
2022-11-30T07:24:32.545Z,91.21
2022-11-30T07:27:01.903Z,91.29
2022-11-30T07:29:29.009Z,91.51
2022-11-30T07:31:56.685Z,91.67
2022-11-30T07:34:23.834Z,91.81
2022-11-30T07:36:50.911Z,92.06
2022-11-30T07:39:17.914Z,91.71
2022-11-30T07:41:45.144Z,91.66
2022-11-30T07:44:12.349Z,91.73
2022-11-30T07:46:39.433Z,91.78
2022-11-30T07:49:07.731Z,91.54
2022-11-30T07:51:35.465Z,91.28
2022-11-30T07:54:03.242Z,91.08
2022-11-30T07:56:30.161Z,90.60
2022-11-30T07:59:00.196Z,90.33
2022-11-30T08:01:30.065Z,90.13
2022-11-30T08:03:57.705Z,89.99
2022-11-30T08:06:27.519Z,89.85
2022-11-30T08:08:57.693Z,89.75
2022-11-30T08:11:28.417Z,89.45
2022-11-30T08:13:55.265Z,89.40
2022-11-30T08:16:25.176Z,89.38
2022-11-30T08:18:52.959Z,89.15
2022-11-30T08:21:21.260Z,88.47
2022-11-30T08:23:54.002Z,88.28
2022-11-30T08:26:27.717Z,88.51
2022-11-30T08:28:55.799Z,88.29
2022-11-30T08:31:27.997Z,87.74
2022-11-30T08:33:57.573Z,87.94
2022-11-30T08:36:25.831Z,87.66
2022-11-30T08:38:52.898Z,87.56
2022-11-30T08:41:22.256Z,87.43
2022-11-30T08:43:50.904Z,87.00
2022-11-30T08:46:50.421Z,86.92
2022-11-30T08:49:24.939Z,86.97
2022-11-30T08:54:45.491Z,86.55
2022-11-30T08:57:13.212Z,86.25
2022-11-30T08:59:40.232Z,86.43
2022-11-30T09:02:14.388Z,86.42
2022-11-30T09:04:41.409Z,86.03
2022-11-30T09:07:09.642Z,85.58
2022-11-30T09:09:37.977Z,85.15
2022-11-30T09:12:06.322Z,84.80
2022-11-30T09:14:33.633Z,84.92
2022-11-30T09:17:00.533Z,84.58
2022-11-30T09:19:27.478Z,84.24
2022-11-30T09:21:54.551Z,83.96
2022-11-30T09:24:21.607Z,84.10
2022-11-30T09:26:48.929Z,84.04
2022-11-30T09:29:15.808Z,84.24
2022-11-30T09:31:42.731Z,84.32
2022-11-30T09:34:11.230Z,84.71
2022-11-30T09:36:38.589Z,84.32
2022-11-30T09:39:06.544Z,84.51
2022-11-30T09:42:01.963Z,84.74
2022-11-30T09:44:56.666Z,84.45
2022-11-30T09:47:51.783Z,84.56
2022-11-30T09:50:23.013Z,84.15
2022-11-30T09:53:04.119Z,84.61
2022-11-30T09:55:36.155Z,84.30
2022-11-30T09:58:05.539Z,83.86
2022-11-30T10:00:34.932Z,83.32
2022-11-30T10:03:05.967Z,83.19
2022-11-30T10:06:12.131Z,83.19
2022-11-30T10:08:53.104Z,83.41
2022-11-30T10:11:38.427Z,83.29
2022-11-30T10:14:25.560Z,83.32
2022-11-30T10:17:04.889Z,83.67
2022-11-30T10:19:47.037Z,83.97
2022-11-30T10:22:29.601Z,83.96
2022-11-30T10:25:12.470Z,84.09
2022-11-30T10:27:39.941Z,83.76
2022-11-30T10:30:16.114Z,84.28
2022-11-30T10:32:47.524Z,83.46
2022-11-30T10:35:28.622Z,83.10
2022-11-30T10:37:58.172Z,83.64
2022-11-30T10:40:31.460Z,83.64
2022-11-30T10:43:04.155Z,83.80
2022-11-30T10:45:32.905Z,83.79
2022-11-30T10:48:15.372Z,84.03
2022-11-30T10:50:42.717Z,83.65
2022-11-30T10:53:12.352Z,83.60
2022-11-30T10:55:46.032Z,83.67
2022-11-30T10:58:26.484Z,83.92
2022-11-30T11:01:32.462Z,83.98
2022-11-30T11:04:10.436Z,84.44
2022-11-30T11:06:44.043Z,84.42
2022-11-30T11:09:42.337Z,84.57
2022-11-30T11:12:26.243Z,84.48
2022-11-30T11:15:10.735Z,84.33
2022-11-30T11:17:37.654Z,84.35
2022-11-30T11:20:28.907Z,84.57
2022-11-30T11:22:56.356Z,83.93
2022-11-30T11:25:31.859Z,83.67
2022-11-30T11:28:20.364Z,83.89
2022-11-30T11:30:47.989Z,83.94
2022-11-30T11:33:15.174Z,84.10
2022-11-30T11:35:46.581Z,84.26
2022-11-30T11:38:27.310Z,84.47
2022-11-30T11:41:07.294Z,84.46
2022-11-30T11:43:56.928Z,84.46
2022-11-30T11:46:24.834Z,84.41
2022-11-30T11:49:01.759Z,84.81
2022-11-30T11:51:34.207Z,85.01
2022-11-30T11:54:19.944Z,85.27
2022-11-30T11:56:48.150Z,85.13
2022-11-30T11:59:33.700Z,85.41
2022-11-30T12:02:03.956Z,85.51
2022-11-30T12:05:08.511Z,85.07
2022-11-30T12:07:45.901Z,85.40
2022-11-30T12:13:17.222Z,85.48
2022-11-30T12:15:57.064Z,85.51
2022-11-30T12:18:30.489Z,84.79
2022-11-30T12:21:07.474Z,84.24
2022-11-30T12:23:45.676Z,84.35
2022-11-30T12:26:41.294Z,83.89
2022-11-30T12:30:03.163Z,83.87
2022-11-30T12:32:56.345Z,84.73
2022-11-30T12:35:42.010Z,84.22
2022-11-30T12:38:37.735Z,83.86
2022-11-30T12:41:04.792Z,83.63
2022-11-30T12:43:50.168Z,83.41
2022-11-30T12:46:24.589Z,83.35
2022-11-30T12:49:27.849Z,82.89
2022-11-30T12:52:19.946Z,82.78
2022-11-30T12:55:22.406Z,82.67
2022-11-30T12:57:56.392Z,82.67
2022-11-30T13:00:25.542Z,82.71
2022-11-30T13:03:13.696Z,82.93
2022-11-30T13:06:00.145Z,82.79
2022-11-30T13:08:39.372Z,82.92
2022-11-30T13:11:12.493Z,83.10
2022-11-30T13:13:49.322Z,83.35
2022-11-30T13:16:16.788Z,83.04
2022-11-30T13:18:43.911Z,83.09
2022-11-30T13:21:40.275Z,83.27
2022-11-30T13:24:33.491Z,83.43
2022-11-30T13:27:18.486Z,83.60
2022-11-30T13:29:51.511Z,83.88
2022-11-30T13:32:48.977Z,83.46
2022-11-30T13:35:30.179Z,83.20
2022-11-30T13:38:34.537Z,82.95
2022-11-30T13:41:20.473Z,83.27
2022-11-30T13:43:48.527Z,82.74
2022-11-30T13:46:26.015Z,82.94
2022-11-30T13:49:19.249Z,82.82
2022-11-30T13:51:48.130Z,82.85
2022-11-30T13:54:40.168Z,82.75
2022-11-30T13:57:25.597Z,82.46
2022-11-30T13:59:55.043Z,82.56
2022-11-30T14:05:16.224Z,81.75
2022-11-30T14:07:50.343Z,81.51
2022-11-30T14:10:42.921Z,81.05
2022-11-30T14:13:13.597Z,80.80
2022-11-30T14:15:43.644Z,80.10
2022-11-30T14:18:10.770Z,80.07
2022-11-30T14:20:50.409Z,79.71
2022-11-30T14:23:38.298Z,79.50
2022-11-30T14:26:11.507Z,79.57
2022-11-30T14:28:54.062Z,79.42
2022-11-30T14:31:25.168Z,79.29
2022-11-30T14:34:17.261Z,79.49
2022-11-30T14:36:48.875Z,78.86
2022-11-30T14:39:36.553Z,79.30
2022-11-30T14:42:05.416Z,79.03
2022-11-30T14:44:39.554Z,79.64
2022-11-30T14:47:14.908Z,79.64
2022-11-30T14:49:48.006Z,79.89
2022-11-30T14:52:24.875Z,80.47
2022-11-30T14:55:27.283Z,80.87
2022-11-30T14:58:07.230Z,81.25
2022-11-30T15:00:41.203Z,81.35
2022-11-30T15:03:27.466Z,81.77
2022-11-30T15:05:58.687Z,82.06
2022-11-30T15:08:39.242Z,82.06
2022-11-30T15:11:09.852Z,82.19
2022-11-30T15:13:43.406Z,82.38
2022-11-30T15:16:22.315Z,82.49
2022-11-30T15:18:49.730Z,82.71
2022-11-30T15:21:31.220Z,82.68
2022-11-30T15:24:00.908Z,82.75
2022-11-30T15:26:50.489Z,83.26
2022-11-30T15:29:34.828Z,83.65
2022-11-30T15:32:05.550Z,83.94
2022-11-30T15:34:45.495Z,83.83
2022-11-30T15:37:13.392Z,83.50
2022-11-30T15:39:44.899Z,83.29
2022-11-30T15:42:20.680Z,83.12
2022-11-30T15:44:48.917Z,83.33
2022-11-30T15:47:35.275Z,83.39
2022-11-30T15:50:03.657Z,83.53
2022-11-30T15:52:31.460Z,83.64
2022-11-30T15:55:03.505Z,83.71
2022-11-30T15:57:57.885Z,83.92
2022-11-30T16:00:25.517Z,83.70
2022-11-30T16:03:11.506Z,83.75
2022-11-30T16:05:39.860Z,83.60
2022-11-30T16:08:16.803Z,83.41
2022-11-30T16:10:44.094Z,83.49
2022-11-30T16:13:20.806Z,83.38
2022-11-30T16:15:50.949Z,83.48
2022-11-30T16:18:26.519Z,83.54
2022-11-30T16:21:04.569Z,83.81
2022-11-30T16:23:35.039Z,83.68
2022-11-30T16:26:02.379Z,83.84
2022-11-30T16:28:29.538Z,83.96
2022-11-30T16:31:00.853Z,83.85
2022-11-30T16:33:28.304Z,83.83
2022-11-30T16:36:03.403Z,83.53
2022-11-30T16:38:30.927Z,83.75
2022-11-30T16:41:16.196Z,83.82
2022-11-30T16:43:44.639Z,84.30
2022-11-30T16:46:17.859Z,84.05
2022-11-30T16:48:45.493Z,84.21
2022-11-30T16:51:25.210Z,84.37
2022-11-30T16:53:52.962Z,84.61
2022-11-30T16:56:19.969Z,84.76
2022-11-30T16:58:47.069Z,84.72
2022-11-30T17:01:21.210Z,85.02
2022-11-30T17:03:52.276Z,85.30
2022-11-30T17:06:21.969Z,85.23
2022-11-30T17:08:50.344Z,85.64
2022-11-30T17:11:38.045Z,85.73
2022-11-30T17:14:05.797Z,85.83
2022-11-30T17:16:33.218Z,85.98
2022-11-30T17:19:00.953Z,86.08
2022-11-30T17:21:31.601Z,86.34
2022-11-30T17:23:59.080Z,86.67
2022-11-30T17:26:26.449Z,86.72
2022-11-30T17:28:53.921Z,87.07
2022-11-30T17:31:21.981Z,87.21
2022-11-30T17:33:49.554Z,87.14
2022-11-30T17:36:18.737Z,87.42
2022-11-30T17:38:46.058Z,87.82
2022-11-30T17:41:19.198Z,87.96
2022-11-30T17:43:47.373Z,88.82
2022-11-30T17:46:17.742Z,89.18
2022-11-30T17:48:46.329Z,89.59
2022-11-30T17:51:13.817Z,90.02
2022-11-30T17:53:42.506Z,90.00
2022-11-30T17:56:16.070Z,90.08
2022-11-30T17:58:45.057Z,90.28
2022-11-30T18:01:26.298Z,90.57
2022-11-30T18:03:55.278Z,90.66
2022-11-30T18:06:23.054Z,90.65
2022-11-30T18:08:50.422Z,90.79
2022-11-30T18:11:23.006Z,90.69
2022-11-30T18:13:51.844Z,90.71
2022-11-30T18:16:27.838Z,90.94
2022-11-30T18:18:57.338Z,90.77
2022-11-30T18:21:28.171Z,90.74
2022-11-30T18:23:56.273Z,90.54
2022-11-30T18:26:25.429Z,90.94
2022-11-30T18:28:54.599Z,90.89
2022-11-30T18:31:21.920Z,91.33
2022-11-30T18:33:56.584Z,91.33
2022-11-30T18:36:24.355Z,91.61
2022-11-30T18:38:51.270Z,92.03
2022-11-30T18:41:18.407Z,91.96
2022-11-30T18:43:45.409Z,92.32
2022-11-30T18:46:14.484Z,92.20
2022-11-30T18:48:41.940Z,92.22
2022-11-30T18:51:18.149Z,92.27
2022-11-30T18:53:45.710Z,92.12
2022-11-30T18:56:16.146Z,92.38
2022-11-30T18:58:44.331Z,92.40
2022-11-30T19:01:17.180Z,92.10
2022-11-30T19:03:49.337Z,92.28
2022-11-30T19:06:16.489Z,92.57
2022-11-30T19:08:43.690Z,92.71
2022-11-30T19:11:10.817Z,93.03
2022-11-30T19:13:37.837Z,92.75
2022-11-30T19:16:07.640Z,92.83
2022-11-30T19:18:35.496Z,92.82
2022-11-30T19:21:07.795Z,92.27
2022-11-30T19:23:36.745Z,92.50
2022-11-30T19:26:05.881Z,92.61
2022-11-30T19:28:34.932Z,92.36
2022-11-30T19:31:25.209Z,91.96
2022-11-30T19:33:54.229Z,91.58
2022-11-30T19:36:27.974Z,91.71
2022-11-30T19:38:57.067Z,91.48
2022-11-30T19:41:24.218Z,91.05
2022-11-30T19:44:02.498Z,90.67
2022-11-30T19:46:32.028Z,90.29
2022-11-30T19:49:01.522Z,90.27
2022-11-30T19:51:30.587Z,89.88
2022-11-30T19:53:59.412Z,89.64
2022-11-30T19:56:29.313Z,89.62
2022-11-30T19:58:59.957Z,89.56
2022-11-30T20:01:31.535Z,89.03
2022-11-30T20:03:58.785Z,88.86
2022-11-30T20:06:29.066Z,88.79
2022-11-30T20:08:56.463Z,88.85
2022-11-30T20:11:24.601Z,88.74
2022-11-30T20:13:52.486Z,88.49
2022-11-30T20:16:21.875Z,88.50
2022-11-30T20:18:56.836Z,88.16
2022-11-30T20:21:26.840Z,88.20
2022-11-30T20:23:58.199Z,87.91
2022-11-30T20:26:30.143Z,87.97
2022-11-30T20:28:59.052Z,87.80
2022-11-30T20:31:28.029Z,87.90
2022-11-30T20:33:55.466Z,87.82
2022-11-30T20:36:22.815Z,87.66
2022-11-30T20:38:50.506Z,87.41
2022-11-30T20:41:20.761Z,87.63
2022-11-30T20:43:48.316Z,87.48
2022-11-30T20:46:23.131Z,87.65
2022-11-30T20:48:51.355Z,87.99
2022-11-30T20:51:30.706Z,88.02
2022-11-30T20:54:06.954Z,88.13
2022-11-30T20:56:36.913Z,88.41
2022-11-30T20:59:06.395Z,88.75
2022-11-30T21:01:34.124Z,89.15
2022-11-30T21:04:01.623Z,89.31
2022-11-30T21:06:29.972Z,89.32
2022-11-30T21:08:57.916Z,89.16
2022-11-30T21:11:26.980Z,89.55
2022-11-30T21:13:55.636Z,89.28
2022-11-30T21:16:28.197Z,89.34
2022-11-30T21:19:00.189Z,89.54
2022-11-30T21:21:33.075Z,89.45
2022-11-30T21:24:03.843Z,89.21
2022-11-30T21:26:36.887Z,89.15
2022-11-30T21:29:07.223Z,88.79
2022-11-30T21:31:34.975Z,89.20
2022-11-30T21:34:02.656Z,89.20
2022-11-30T21:36:30.004Z,89.09
2022-11-30T21:39:05.058Z,88.99
2022-11-30T21:41:38.781Z,88.82
2022-11-30T21:44:11.684Z,88.92
2022-11-30T21:46:39.178Z,89.15
2022-11-30T21:49:06.656Z,89.20
2022-11-30T21:51:34.153Z,89.52
2022-11-30T21:54:05.797Z,89.71
2022-11-30T21:56:35.708Z,90.03
2022-11-30T21:59:08.499Z,90.10
2022-11-30T22:01:38.406Z,89.65
2022-11-30T22:04:08.397Z,89.76
2022-11-30T22:06:37.816Z,89.88
2022-11-30T22:09:09.175Z,89.85
2022-11-30T22:11:41.712Z,89.74
2022-11-30T22:14:13.843Z,89.66
2022-11-30T22:16:41.125Z,89.44
2022-11-30T22:19:08.358Z,89.30
2022-11-30T22:21:36.164Z,89.46
2022-11-30T22:24:09.555Z,89.33
2022-11-30T22:26:41.851Z,89.30
2022-11-30T22:29:20.763Z,89.30
2022-11-30T22:31:49.806Z,88.95
2022-11-30T22:34:17.190Z,88.84
2022-11-30T22:36:45.350Z,88.71
2022-11-30T22:39:15.356Z,88.47
2022-11-30T22:41:45.273Z,88.56
2022-11-30T22:44:14.509Z,88.31
2022-11-30T22:46:44.916Z,87.92
2022-11-30T22:49:20.730Z,87.69
2022-11-30T22:51:49.963Z,87.17
2022-11-30T22:54:17.861Z,87.22
2022-11-30T22:56:46.750Z,87.16
2022-11-30T22:59:15.133Z,86.74
2022-11-30T23:01:45.601Z,86.64
2022-11-30T23:04:16.578Z,86.40
2022-11-30T23:06:44.705Z,86.03
2022-11-30T23:09:14.772Z,86.16
2022-11-30T23:11:42.274Z,85.72
2022-11-30T23:14:10.060Z,85.68
2022-11-30T23:16:37.410Z,85.29
2022-11-30T23:19:05.322Z,85.26
2022-11-30T23:21:41.381Z,85.15
2022-11-30T23:24:13.615Z,85.66
2022-11-30T23:26:42.698Z,85.32
2022-11-30T23:29:15.077Z,85.39
2022-11-30T23:31:44.105Z,85.43
2022-11-30T23:34:15.231Z,85.21
2022-11-30T23:36:42.495Z,85.18
2022-11-30T23:39:15.040Z,85.42
2022-11-30T23:41:42.784Z,85.26
2022-11-30T23:44:10.318Z,85.31
2022-11-30T23:46:38.069Z,85.44
2022-11-30T23:49:06.855Z,85.35
2022-11-30T23:51:34.039Z,85.07
2022-11-30T23:54:01.299Z,85.26
2022-11-30T23:56:28.348Z,85.29
2022-11-30T23:58:55.409Z,85.04
